Time;durP1;ratioP1;P1;durP2;ratioP2;P2;SDS_P1;SDS_P2;PMS_P1;PMS_P2;Temp;Humidity;BMP_temperature;BMP_pressure;BME280_temperature;BME280_humidity;BME280_pressure;Samples;Min_cycle;Max_cycle;Signal;HPM_P1;HPM_P2
2022/05/21 00:02:11;;;;;;;;;;;14.50;99.90;;;;;;5026778;28;20356;-67
2022/05/21 00:04:41;;;;;;;;;;;14.50;99.90;;;;;;5028162;28;20007;-68
2022/05/21 00:07:07;;;;;;;;;;;14.50;99.90;;;;;;5025971;28;20381;-68
2022/05/21 00:09:33;;;;;;;;;;;14.50;99.90;;;;;;5027128;28;19932;-66
2022/05/21 00:11:58;;;;;;;;;;;14.50;99.90;;;;;;5031475;28;20109;-68
2022/05/21 00:14:24;;;;;;;;;;;14.50;99.90;;;;;;5028385;28;19917;-68
2022/05/21 00:16:49;;;;;;;;;;;14.50;99.90;;;;;;5026182;28;19924;-69
2022/05/21 00:19:15;;;;;;;;;;;14.50;99.90;;;;;;5026458;28;20421;-68
2022/05/21 00:21:41;;;;;;;;;;;14.40;99.90;;;;;;5027204;28;19917;-69
2022/05/21 00:24:06;;;;;;;;;;;14.40;99.90;;;;;;5029468;28;19913;-68
2022/05/21 00:26:32;;;;;;;;;;;14.50;99.90;;;;;;5028646;28;19945;-67
2022/05/21 00:28:58;;;;;;;;;;;14.50;99.90;;;;;;5029701;28;20009;-67
2022/05/21 00:31:23;;;;;;;;;;;14.50;99.90;;;;;;5027065;28;19914;-67
2022/05/21 00:33:49;;;;;;;;;;;14.50;99.90;;;;;;5030205;28;19929;-69
2022/05/21 00:36:14;;;;;;;;;;;14.40;99.90;;;;;;5028954;28;19917;-69
2022/05/21 00:38:40;;;;;;;;;;;14.40;99.90;;;;;;5042548;28;19912;-68
2022/05/21 00:41:07;;;;;;;;;;;14.40;99.90;;;;;;5029402;28;19992;-70
2022/05/21 00:43:39;;;;;;;;;;;14.40;99.90;;;;;;5026215;28;19921;-67
2022/05/21 00:46:06;;;;;;;;;;;14.40;99.90;;;;;;5027181;28;19975;-68
2022/05/21 00:48:31;;;;;;;;;;;14.40;99.90;;;;;;5035909;28;19929;-68
2022/05/21 00:50:57;;;;;;;;;;;14.40;99.90;;;;;;5030674;28;19909;-66
2022/05/21 00:53:23;;;;;;;;;;;14.40;99.90;;;;;;5025910;28;19924;-68
2022/05/21 00:55:50;;;;;;;;;;;14.30;99.90;;;;;;5028072;28;19923;-67
2022/05/21 01:01:04;;;;;;;;;;;14.30;99.90;;;;;;5025935;28;19952;-69
2022/05/21 01:03:30;;;;;;;;;;;14.30;99.90;;;;;;5025417;28;19956;-68
2022/05/21 01:06:01;;;;;;;;;;;14.30;99.90;;;;;;5028598;28;19983;-69
2022/05/21 01:08:26;;;;;;;;;;;14.30;99.90;;;;;;5035129;28;19913;-68
2022/05/21 01:10:54;;;;;;;;;;;14.30;99.90;;;;;;5012474;28;19924;-68
2022/05/21 01:13:21;;;;;;;;;;;14.30;99.90;;;;;;5031539;28;20432;-69
2022/05/21 01:15:49;;;;;;;;;;;14.30;99.90;;;;;;5043092;28;20374;-68
2022/05/21 01:18:14;;;;;;;;;;;14.30;99.90;;;;;;5030092;28;20409;-68
2022/05/21 01:20:44;;;;;;;;;;;14.30;99.90;;;;;;5029853;28;20000;-66
2022/05/21 01:23:10;;;;;;;;;;;14.30;99.90;;;;;;5028569;28;19924;-68
2022/05/21 01:25:38;;;;;;;;;;;14.30;99.90;;;;;;5027410;28;20020;-69
2022/05/21 01:28:04;;;;;;;;;;;14.30;99.90;;;;;;5028578;28;19913;-68
2022/05/21 01:30:34;;;;;;;;;;;14.30;99.90;;;;;;5043131;28;20766;-69
2022/05/21 01:33:02;;;;;;;;;;;14.30;99.90;;;;;;5015214;28;19920;-67
2022/05/21 01:35:28;;;;;;;;;;;14.30;99.90;;;;;;5030915;28;20056;-69
2022/05/21 01:37:53;;;;;;;;;;;14.30;99.90;;;;;;5035454;28;19995;-69
2022/05/21 01:40:19;;;;;;;;;;;14.40;99.90;;;;;;5042297;28;19922;-69
2022/05/21 01:44:37;;;;;;;;;;;14.40;99.90;;;;;;5029339;28;19920;-68
2022/05/21 01:45:30;;;;;;;;;;;14.40;99.90;;;;;;5029824;28;19913;-70
2022/05/21 01:47:55;;;;;;;;;;;14.40;99.90;;;;;;5033888;28;20661;-69
2022/05/21 01:50:21;;;;;;;;;;;14.40;99.90;;;;;;5032332;28;19963;-68
2022/05/21 01:52:46;;;;;;;;;;;14.40;99.90;;;;;;5034745;28;20389;-68
2022/05/21 01:55:12;;;;;;;;;;;14.50;99.90;;;;;;5040456;28;19925;-69
2022/05/21 01:57:37;;;;;;;;;;;14.50;99.90;;;;;;5045480;28;19960;-69
2022/05/21 02:00:03;;;;;;;;;;;14.50;99.90;;;;;;5032739;28;20378;-69
2022/05/21 02:02:29;;;;;;;;;;;14.40;99.90;;;;;;5029927;28;19909;-69
2022/05/21 02:04:54;;;;;;;;;;;14.40;99.90;;;;;;5038893;28;19920;-68
2022/05/21 02:07:20;;;;;;;;;;;14.40;99.90;;;;;;5036996;28;19923;-68
2022/05/21 02:09:45;;;;;;;;;;;14.40;99.90;;;;;;5026127;28;20325;-68
2022/05/21 02:12:14;;;;;;;;;;;14.40;99.90;;;;;;5032962;28;19917;-70
2022/05/21 02:14:40;;;;;;;;;;;14.40;99.90;;;;;;5033270;28;20401;-69
2022/05/21 02:17:05;;;;;;;;;;;14.40;99.90;;;;;;5028391;28;19952;-70
2022/05/21 02:19:31;;;;;;;;;;;14.40;99.90;;;;;;5034846;28;19959;-68
2022/05/21 02:21:56;;;;;;;;;;;14.50;99.90;;;;;;5032228;28;19917;-69
2022/05/21 02:24:22;;;;;;;;;;;14.40;99.90;;;;;;5029586;28;19967;-70
2022/05/21 02:26:47;;;;;;;;;;;14.40;99.90;;;;;;5032740;28;19910;-69
2022/05/21 02:29:13;;;;;;;;;;;14.40;99.90;;;;;;5028660;28;20422;-69
2022/05/21 02:31:38;;;;;;;;;;;14.40;99.90;;;;;;5029663;28;19913;-69
2022/05/21 02:34:04;;;;;;;;;;;14.40;99.90;;;;;;5028594;28;20298;-70
2022/05/21 02:39:25;;;;;;;;;;;14.40;99.90;;;;;;5031762;28;19922;-69
2022/05/21 02:41:51;;;;;;;;;;;14.40;99.90;;;;;;5033310;28;19909;-68
2022/05/21 02:44:17;;;;;;;;;;;14.40;99.90;;;;;;5031686;28;20066;-68
2022/05/21 02:46:43;;;;;;;;;;;14.30;99.90;;;;;;5033730;28;20003;-71
2022/05/21 02:49:08;;;;;;;;;;;14.30;99.90;;;;;;5031484;28;20343;-69
2022/05/21 02:51:34;;;;;;;;;;;14.30;99.90;;;;;;5028416;28;19929;-69
2022/05/21 02:53:59;;;;;;;;;;;14.30;99.90;;;;;;5032573;28;19944;-69
2022/05/21 02:56:24;;;;;;;;;;;14.30;99.90;;;;;;5041796;28;19909;-69
2022/05/21 02:58:50;;;;;;;;;;;14.30;99.90;;;;;;5029177;28;20267;-70
2022/05/21 03:01:15;;;;;;;;;;;14.20;99.90;;;;;;5027534;28;19917;-70
2022/05/21 03:03:41;;;;;;;;;;;14.20;99.90;;;;;;5027895;28;20390;-68
2022/05/21 03:06:06;;;;;;;;;;;14.20;99.90;;;;;;5031359;28;19913;-68
2022/05/21 03:11:16;;;;;;;;;;;14.20;99.90;;;;;;5027329;28;19959;-68
2022/05/21 03:13:41;;;;;;;;;;;14.20;99.90;;;;;;5039278;28;19920;-68
2022/05/21 03:16:07;;;;;;;;;;;14.20;99.90;;;;;;5037084;28;19927;-68
2022/05/21 03:18:32;;;;;;;;;;;14.20;99.90;;;;;;5027554;28;19913;-68
2022/05/21 03:20:58;;;;;;;;;;;14.20;99.90;;;;;;5033078;28;20306;-69
2022/05/21 03:23:23;;;;;;;;;;;14.20;99.90;;;;;;5029082;28;19923;-69
2022/05/21 03:25:49;;;;;;;;;;;14.20;99.90;;;;;;5026907;28;19936;-69
2022/05/21 03:28:16;;;;;;;;;;;14.30;99.90;;;;;;5028447;28;19913;-68
2022/05/21 03:30:41;;;;;;;;;;;14.20;99.90;;;;;;5028671;28;19952;-70
2022/05/21 03:33:07;;;;;;;;;;;14.30;99.90;;;;;;5031455;28;20390;-69
2022/05/21 03:35:33;;;;;;;;;;;14.30;99.90;;;;;;5031811;28;19917;-69
2022/05/21 03:38:00;;;;;;;;;;;14.30;99.90;;;;;;5026789;28;20011;-69
2022/05/21 03:40:26;;;;;;;;;;;14.30;99.90;;;;;;5029266;28;19921;-69
2022/05/21 03:42:52;;;;;;;;;;;14.30;99.90;;;;;;5026965;28;19913;-70
2022/05/21 03:45:18;;;;;;;;;;;14.40;99.90;;;;;;5030640;28;20404;-69
2022/05/21 03:47:43;;;;;;;;;;;14.40;99.90;;;;;;5030000;28;19956;-70
2022/05/21 03:50:10;;;;;;;;;;;14.40;99.90;;;;;;5027843;28;20263;-71
2022/05/21 03:52:35;;;;;;;;;;;14.30;99.90;;;;;;5026842;28;19913;-69
2022/05/21 03:55:01;;;;;;;;;;;14.40;99.90;;;;;;5027767;28;20473;-70
2022/05/21 03:57:26;;;;;;;;;;;14.40;99.90;;;;;;5027562;28;19918;-70
2022/05/21 03:59:52;;;;;;;;;;;14.40;99.90;;;;;;5031023;28;20039;-70
2022/05/21 04:02:17;;;;;;;;;;;14.40;99.90;;;;;;5026753;28;19917;-70
2022/05/21 04:04:43;;;;;;;;;;;14.40;99.90;;;;;;5028640;28;19936;-69
2022/05/21 04:07:09;;;;;;;;;;;14.40;99.90;;;;;;5026996;28;19949;-68
2022/05/21 04:09:34;;;;;;;;;;;14.40;99.90;;;;;;5026641;28;19936;-70
2022/05/21 04:12:00;;;;;;;;;;;14.40;99.90;;;;;;5031183;28;19920;-69
2022/05/21 04:14:27;;;;;;;;;;;14.40;99.90;;;;;;5027077;28;19919;-68
2022/05/21 04:16:57;;;;;;;;;;;14.50;99.90;;;;;;5029800;28;19913;-70
2022/05/21 04:19:23;;;;;;;;;;;14.50;99.90;;;;;;5030332;28;19966;-70
2022/05/21 04:21:48;;;;;;;;;;;14.50;99.90;;;;;;5030832;28;19913;-69
2022/05/21 04:24:14;;;;;;;;;;;14.50;99.90;;;;;;5028741;28;19909;-71
2022/05/21 04:26:39;;;;;;;;;;;14.50;99.90;;;;;;5029231;28;20319;-69
2022/05/21 04:29:05;;;;;;;;;;;14.50;99.90;;;;;;5026006;28;19913;-70
2022/05/21 04:31:30;;;;;;;;;;;14.60;99.90;;;;;;5032043;28;19913;-69
2022/05/21 04:33:56;;;;;;;;;;;14.60;99.90;;;;;;5026416;28;19922;-70
2022/05/21 04:36:22;;;;;;;;;;;14.60;99.90;;;;;;5027874;28;19944;-70
2022/05/21 04:38:49;;;;;;;;;;;14.60;99.90;;;;;;5030422;28;20286;-69
2022/05/21 04:41:15;;;;;;;;;;;14.60;99.90;;;;;;5031862;28;19971;-69
2022/05/21 04:43:41;;;;;;;;;;;14.70;99.90;;;;;;5031348;28;19921;-69
2022/05/21 04:46:08;;;;;;;;;;;14.70;99.90;;;;;;5026215;28;19913;-69
2022/05/21 04:48:33;;;;;;;;;;;14.70;99.90;;;;;;5030142;28;19925;-70
2022/05/21 04:50:59;;;;;;;;;;;14.70;99.90;;;;;;5034995;28;19909;-69
2022/05/21 04:53:25;;;;;;;;;;;14.70;99.90;;;;;;5030326;28;20426;-70
2022/05/21 04:55:50;;;;;;;;;;;14.70;99.90;;;;;;5031680;28;19992;-70
2022/05/21 04:58:16;;;;;;;;;;;14.70;99.90;;;;;;5033235;28;19967;-70
2022/05/21 05:00:42;;;;;;;;;;;14.70;99.90;;;;;;5029915;28;19913;-70
2022/05/21 05:03:11;;;;;;;;;;;14.70;99.90;;;;;;5031148;28;19909;-70
2022/05/21 05:05:40;;;;;;;;;;;14.80;99.90;;;;;;5032825;28;19916;-68
2022/05/21 05:08:06;;;;;;;;;;;14.90;99.90;;;;;;5028206;28;19913;-70
2022/05/21 05:10:32;;;;;;;;;;;14.90;99.90;;;;;;5029703;28;20424;-68
2022/05/21 05:12:57;;;;;;;;;;;14.90;99.90;;;;;;5042721;28;19913;-69
2022/05/21 05:15:23;;;;;;;;;;;15.00;99.90;;;;;;5033090;28;19921;-68
2022/05/21 05:17:48;;;;;;;;;;;15.00;99.90;;;;;;5034644;28;20343;-68
2022/05/21 05:20:14;;;;;;;;;;;15.00;99.90;;;;;;5033871;28;19917;-68
2022/05/21 05:22:39;;;;;;;;;;;15.10;99.90;;;;;;5033159;28;19917;-69
2022/05/21 05:25:05;;;;;;;;;;;15.10;99.90;;;;;;5033168;28;20302;-69
2022/05/21 05:27:31;;;;;;;;;;;15.20;99.90;;;;;;5033420;28;19955;-68
2022/05/21 05:29:57;;;;;;;;;;;15.20;99.90;;;;;;5034450;28;20392;-69
2022/05/21 05:32:22;;;;;;;;;;;15.20;99.90;;;;;;5033515;28;19996;-68
2022/05/21 05:34:48;;;;;;;;;;;15.30;99.90;;;;;;5029335;28;19928;-68
2022/05/21 05:37:13;;;;;;;;;;;15.30;99.90;;;;;;5029395;28;20609;-66
2022/05/21 05:39:39;;;;;;;;;;;15.30;99.90;;;;;;5031064;28;19932;-68
2022/05/21 05:42:04;;;;;;;;;;;15.30;99.90;;;;;;5033517;28;19909;-69
2022/05/21 05:44:31;;;;;;;;;;;15.40;99.90;;;;;;5030385;28;19963;-69
2022/05/21 05:46:57;;;;;;;;;;;15.40;99.90;;;;;;5032528;28;19984;-69
2022/05/21 05:49:22;;;;;;;;;;;15.50;99.90;;;;;;5032947;28;20044;-68
2022/05/21 05:51:48;;;;;;;;;;;15.50;99.90;;;;;;5033669;28;19913;-68
2022/05/21 05:54:13;;;;;;;;;;;15.50;99.90;;;;;;5031929;28;19987;-68
2022/05/21 05:56:43;;;;;;;;;;;15.60;99.90;;;;;;5031496;28;19992;-68
2022/05/21 06:02:57;;;;;;;;;;;15.70;99.90;;;;;;5032514;28;19920;-67
2022/05/21 06:04:39;;;;;;;;;;;15.70;99.90;;;;;;5029696;28;19917;-70
2022/05/21 06:07:05;;;;;;;;;;;15.70;99.90;;;;;;5029904;28;19967;-70
2022/05/21 06:09:32;;;;;;;;;;;15.80;99.90;;;;;;5042160;28;20010;-69
2022/05/21 06:11:58;;;;;;;;;;;15.80;99.90;;;;;;5033319;28;19913;-68
2022/05/21 06:14:25;;;;;;;;;;;15.80;99.90;;;;;;5029844;28;19928;-67
2022/05/21 06:16:51;;;;;;;;;;;15.90;99.90;;;;;;5029200;28;19968;-68
2022/05/21 06:19:17;;;;;;;;;;;16.00;99.90;;;;;;5030299;28;19952;-68
2022/05/21 06:21:42;;;;;;;;;;;16.00;99.90;;;;;;5042411;28;19914;-66
2022/05/21 06:24:08;;;;;;;;;;;16.10;99.90;;;;;;5031749;28;19909;-69
2022/05/21 06:26:33;;;;;;;;;;;16.10;99.90;;;;;;5030284;28;19962;-66
2022/05/21 06:28:59;;;;;;;;;;;16.20;99.90;;;;;;5028581;28;19913;-68
2022/05/21 06:31:24;;;;;;;;;;;16.30;99.90;;;;;;5039880;28;19923;-68
2022/05/21 06:33:50;;;;;;;;;;;16.30;99.90;;;;;;5040591;28;19976;-68
2022/05/21 06:36:16;;;;;;;;;;;16.30;99.90;;;;;;5030510;28;19952;-68
2022/05/21 06:38:42;;;;;;;;;;;16.40;99.90;;;;;;5031367;28;19908;-67
2022/05/21 06:41:08;;;;;;;;;;;16.40;99.90;;;;;;5029924;28;19920;-68
2022/05/21 06:43:33;;;;;;;;;;;16.40;99.90;;;;;;5028292;28;19913;-67
2022/05/21 06:45:59;;;;;;;;;;;16.40;99.90;;;;;;5028868;28;19917;-67
2022/05/21 06:48:24;;;;;;;;;;;16.40;99.90;;;;;;5029629;28;20387;-67
2022/05/21 06:50:50;;;;;;;;;;;16.50;99.90;;;;;;5032966;28;19985;-68
2022/05/21 06:53:16;;;;;;;;;;;16.50;99.90;;;;;;5027408;28;20286;-68
2022/05/21 06:55:41;;;;;;;;;;;16.60;99.90;;;;;;5028347;28;20301;-68
2022/05/21 06:58:07;;;;;;;;;;;16.60;99.90;;;;;;5029409;28;19919;-67
2022/05/21 07:00:32;;;;;;;;;;;16.70;99.90;;;;;;5027698;28;19979;-67
2022/05/21 07:02:58;;;;;;;;;;;16.70;99.90;;;;;;5032905;28;19996;-67
2022/05/21 07:08:16;;;;;;;;;;;16.80;99.90;;;;;;5039417;28;19920;-71
2022/05/21 07:10:44;;;;;;;;;;;16.90;99.90;;;;;;5032000;28;20298;-71
2022/05/21 07:13:10;;;;;;;;;;;16.90;99.90;;;;;;5033722;28;20009;-69
2022/05/21 07:15:36;;;;;;;;;;;17.00;99.90;;;;;;5034621;28;20007;-71
2022/05/21 07:18:03;;;;;;;;;;;17.00;99.90;;;;;;5028892;28;19909;-70
2022/05/21 07:20:29;;;;;;;;;;;17.10;99.90;;;;;;5033507;28;20362;-71
2022/05/21 07:22:55;;;;;;;;;;;17.20;99.90;;;;;;5022951;28;19952;-67
2022/05/21 07:25:25;;;;;;;;;;;17.20;99.90;;;;;;5040110;28;19921;-69
2022/05/21 07:27:51;;;;;;;;;;;17.20;99.90;;;;;;5029744;28;19952;-68
2022/05/21 07:30:17;;;;;;;;;;;17.30;99.90;;;;;;5046122;28;19956;-69
2022/05/21 07:32:44;;;;;;;;;;;17.30;99.90;;;;;;5037517;28;20185;-67
2022/05/21 07:35:11;;;;;;;;;;;17.40;99.90;;;;;;5029983;28;19921;-67
2022/05/21 07:37:36;;;;;;;;;;;17.50;99.90;;;;;;5028407;28;19919;-68
2022/05/21 07:40:03;;;;;;;;;;;17.50;99.90;;;;;;5031213;28;20356;-68
2022/05/21 07:42:28;;;;;;;;;;;17.60;99.90;;;;;;5029718;28;19914;-69
2022/05/21 07:44:56;;;;;;;;;;;17.70;99.90;;;;;;5031701;28;19932;-69
2022/05/21 07:47:24;;;;;;;;;;;17.80;99.90;;;;;;5035723;28;19920;-69
2022/05/21 07:49:56;;;;;;;;;;;17.90;99.90;;;;;;5027518;28;19966;-67
2022/05/21 07:52:22;;;;;;;;;;;18.00;99.90;;;;;;5034757;28;19916;-69
2022/05/21 07:54:47;;;;;;;;;;;18.00;99.90;;;;;;5044382;28;20016;-69
2022/05/21 07:57:13;;;;;;;;;;;18.10;99.90;;;;;;5046466;28;19999;-69
2022/05/21 07:59:38;;;;;;;;;;;18.10;99.90;;;;;;5043138;28;19909;-70
2022/05/21 08:02:05;;;;;;;;;;;18.20;99.90;;;;;;5031525;28;20329;-68
2022/05/21 08:04:31;;;;;;;;;;;18.20;99.90;;;;;;5031244;28;20356;-67
2022/05/21 08:06:56;;;;;;;;;;;18.20;99.90;;;;;;5022368;28;20003;-68
2022/05/21 08:09:22;;;;;;;;;;;18.40;99.90;;;;;;5023747;28;19921;-69
2022/05/21 08:11:47;;;;;;;;;;;18.40;99.90;;;;;;5033048;28;19928;-68
2022/05/21 08:14:13;;;;;;;;;;;18.40;99.90;;;;;;5027425;28;19966;-67
2022/05/21 08:16:38;;;;;;;;;;;18.50;99.90;;;;;;5023027;28;19914;-67
2022/05/21 08:19:04;;;;;;;;;;;18.50;99.90;;;;;;5024945;28;19912;-67
2022/05/21 08:21:30;;;;;;;;;;;18.60;99.90;;;;;;5018343;28;20047;-68
2022/05/21 08:29:29;;;;;;;;;;;18.80;99.70;;;;;;5024576;28;20305;-67
2022/05/21 08:31:55;;;;;;;;;;;18.80;99.60;;;;;;5023583;28;19913;-67
2022/05/21 08:34:22;;;;;;;;;;;18.90;99.60;;;;;;5026777;28;19988;-66
2022/05/21 08:36:47;;;;;;;;;;;18.90;99.50;;;;;;5022790;28;20392;-67
2022/05/21 08:39:13;;;;;;;;;;;19.00;98.70;;;;;;5016725;28;19914;-67
2022/05/21 08:41:45;;;;;;;;;;;19.00;99.60;;;;;;5025908;28;19924;-68
2022/05/21 08:44:18;;;;;;;;;;;19.10;98.80;;;;;;5022788;28;19990;-66
2022/05/21 08:46:56;;;;;;;;;;;19.10;99.10;;;;;;5054359;28;19915;-69
2022/05/21 08:49:40;;;;;;;;;;;19.20;98.40;;;;;;5018828;28;19980;-65
2022/05/21 08:52:24;;;;;;;;;;;19.20;97.70;;;;;;5023528;28;19913;-67
2022/05/21 08:54:50;;;;;;;;;;;19.10;97.40;;;;;;5020043;28;19925;-64
2022/05/21 08:57:25;;;;;;;;;;;19.10;96.80;;;;;;5028351;28;19928;-67
2022/05/21 08:59:55;;;;;;;;;;;19.20;96.80;;;;;;5026078;28;19913;-66
2022/05/21 09:02:30;;;;;;;;;;;19.10;97.10;;;;;;5021820;28;19943;-66
2022/05/21 09:04:56;;;;;;;;;;;19.10;96.50;;;;;;5022401;28;19913;-67
2022/05/21 09:07:24;;;;;;;;;;;19.10;96.30;;;;;;5022237;28;19924;-66
2022/05/21 09:10:07;;;;;;;;;;;19.10;95.50;;;;;;5024348;28;19944;-67
2022/05/21 09:12:42;;;;;;;;;;;19.00;96.10;;;;;;5020159;28;20023;-66
2022/05/21 09:15:09;;;;;;;;;;;19.10;96.10;;;;;;5018994;28;19927;-67
2022/05/21 09:17:41;;;;;;;;;;;19.10;96.20;;;;;;5023669;28;19921;-67
2022/05/21 09:20:14;;;;;;;;;;;19.00;95.10;;;;;;5027426;28;20369;-66
2022/05/21 09:22:39;;;;;;;;;;;19.00;96.00;;;;;;5024694;28;19913;-66
2022/05/21 09:25:17;;;;;;;;;;;19.00;96.30;;;;;;5020983;28;20008;-66
2022/05/21 09:27:47;;;;;;;;;;;19.10;96.30;;;;;;5021449;28;19917;-68
2022/05/21 09:30:16;;;;;;;;;;;19.10;95.80;;;;;;5017597;28;19932;-67
2022/05/21 09:32:42;;;;;;;;;;;19.10;95.80;;;;;;5026229;28;19922;-67
2022/05/21 09:35:12;;;;;;;;;;;19.10;95.50;;;;;;5021272;28;20556;-67
2022/05/21 09:37:38;;;;;;;;;;;19.10;95.40;;;;;;5027889;28;19917;-67
2022/05/21 09:40:22;;;;;;;;;;;19.00;95.60;;;;;;5027685;28;19917;-67
2022/05/21 09:45:33;;;;;;;;;;;19.10;95.80;;;;;;5026247;28;19921;-62
2022/05/21 09:48:05;;;;;;;;;;;19.20;96.10;;;;;;5023787;28;19957;-67
2022/05/21 09:50:40;;;;;;;;;;;19.20;96.30;;;;;;5028736;28;20443;-66
2022/05/21 09:53:21;;;;;;;;;;;19.30;95.60;;;;;;5025778;28;19913;-67
2022/05/21 09:55:56;;;;;;;;;;;19.30;96.10;;;;;;5026514;28;19928;-67
2022/05/21 09:58:21;;;;;;;;;;;19.40;95.40;;;;;;5022626;28;19917;-66
2022/05/21 10:00:53;;;;;;;;;;;19.40;95.00;;;;;;5026885;28;20284;-67
2022/05/21 10:03:34;;;;;;;;;;;19.30;94.90;;;;;;5020543;28;20408;-66
2022/05/21 10:06:00;;;;;;;;;;;19.30;94.70;;;;;;5026008;28;20293;-67
2022/05/21 10:11:15;;;;;;;;;;;19.30;94.80;;;;;;5025214;28;19921;-67
2022/05/21 10:13:47;;;;;;;;;;;19.40;94.10;;;;;;5028203;28;19917;-66
2022/05/21 10:16:28;;;;;;;;;;;19.30;94.60;;;;;;5026735;28;19917;-69
2022/05/21 10:19:00;;;;;;;;;;;19.40;94.90;;;;;;5025850;28;20403;-67
2022/05/21 10:21:31;;;;;;;;;;;19.50;94.70;;;;;;5019273;28;19914;-67
2022/05/21 10:24:04;;;;;;;;;;;19.50;95.10;;;;;;5022621;28;19917;-65
2022/05/21 10:26:46;;;;;;;;;;;19.60;94.90;;;;;;5026703;28;19960;-67
2022/05/21 10:29:30;;;;;;;;;;;19.60;95.00;;;;;;5029987;28;20032;-68
2022/05/21 10:31:55;;;;;;;;;;;19.70;94.30;;;;;;5026714;28;19913;-66
2022/05/21 10:34:21;;;;;;;;;;;19.60;94.60;;;;;;5026079;28;19939;-68
2022/05/21 10:37:04;;;;;;;;;;;19.70;93.90;;;;;;5024616;28;19949;-67
2022/05/21 10:39:30;;;;;;;;;;;19.70;94.10;;;;;;5025590;28;20003;-67
2022/05/21 10:42:13;;;;;;;;;;;19.70;94.40;;;;;;5030731;28;20048;-69
2022/05/21 10:44:54;;;;;;;;;;;19.70;94.30;;;;;;5028328;28;19917;-68
2022/05/21 10:47:22;;;;;;;;;;;19.80;94.30;;;;;;5024796;28;19913;-65
2022/05/21 10:49:57;;;;;;;;;;;19.80;93.90;;;;;;5025469;28;20371;-67
2022/05/21 10:52:38;;;;;;;;;;;19.80;94.00;;;;;;5023413;28;19967;-69
2022/05/21 10:55:10;;;;;;;;;;;19.90;93.90;;;;;;5057338;28;19928;-68
2022/05/21 10:57:45;;;;;;;;;;;19.90;93.80;;;;;;5018670;28;19921;-65
2022/05/21 11:00:16;;;;;;;;;;;19.90;93.90;;;;;;5026533;28;20481;-69
2022/05/21 11:02:51;;;;;;;;;;;20.00;93.60;;;;;;5027856;28;20443;-67
2022/05/21 11:05:35;;;;;;;;;;;20.00;92.70;;;;;;5023962;28;20398;-69
2022/05/21 11:08:06;;;;;;;;;;;19.90;93.10;;;;;;5028329;28;19913;-67
2022/05/21 11:10:37;;;;;;;;;;;20.00;93.60;;;;;;5027375;28;19920;-66
2022/05/21 11:13:08;;;;;;;;;;;20.10;93.50;;;;;;5021422;28;19919;-67
2022/05/21 11:15:39;;;;;;;;;;;20.20;93.40;;;;;;5020379;28;20013;-62
2022/05/21 11:18:05;;;;;;;;;;;20.30;92.90;;;;;;5026100;28;19913;-62
2022/05/21 11:20:32;;;;;;;;;;;20.30;93.10;;;;;;5024294;28;20004;-63
2022/05/21 11:23:06;;;;;;;;;;;20.30;92.80;;;;;;5025255;28;19918;-61
2022/05/21 11:25:55;;;;;;;;;;;20.30;92.50;;;;;;5024297;28;19920;-64
2022/05/21 11:28:20;;;;;;;;;;;20.30;92.30;;;;;;5026541;28;20496;-64
2022/05/21 11:30:46;;;;;;;;;;;20.30;92.50;;;;;;5022132;28;20008;-63
2022/05/21 11:38:50;;;;;;;;;;;20.30;92.50;;;;;;5024686;28;19968;-62
2022/05/21 11:41:27;;;;;;;;;;;20.40;92.20;;;;;;5027263;28;19914;-62
2022/05/21 11:47:09;;;;;;;;;;;20.40;91.80;;;;;;5027067;28;20392;-62
2022/05/21 11:49:35;;;;;;;;;;;20.50;92.20;;;;;;5004232;28;20068;-63
2022/05/21 11:52:20;;;;;;;;;;;20.60;92.30;;;;;;5005415;28;19988;-63
2022/05/21 11:54:46;;;;;;;;;;;20.70;92.30;;;;;;5005748;28;19922;-64
2022/05/21 11:57:28;;;;;;;;;;;20.80;92.00;;;;;;5005441;28;20672;-63
2022/05/21 11:59:53;;;;;;;;;;;20.90;92.10;;;;;;5006334;28;19963;-64
2022/05/21 12:02:22;;;;;;;;;;;21.00;91.50;;;;;;5004793;28;20216;-63
2022/05/21 12:04:49;;;;;;;;;;;21.00;91.20;;;;;;5005460;28;19940;-62
2022/05/21 12:07:17;;;;;;;;;;;21.10;91.70;;;;;;5005602;28;19913;-62
2022/05/21 12:10:03;;;;;;;;;;;21.20;91.40;;;;;;5005180;28;20187;-62
2022/05/21 12:12:30;;;;;;;;;;;21.20;90.70;;;;;;5005494;28;19933;-63
2022/05/21 12:15:12;;;;;;;;;;;21.20;90.30;;;;;;5006512;28;19926;-61
2022/05/21 12:17:43;;;;;;;;;;;21.20;90.80;;;;;;5005988;28;20421;-60
2022/05/21 12:20:11;;;;;;;;;;;21.40;90.90;;;;;;5005256;28;20345;-64
2022/05/21 12:22:36;;;;;;;;;;;21.40;91.00;;;;;;5005306;28;20342;-61
2022/05/21 12:25:03;;;;;;;;;;;21.50;90.70;;;;;;5005099;28;20434;-61
2022/05/21 12:27:28;;;;;;;;;;;21.60;90.10;;;;;;5017443;28;19928;-63
2022/05/21 12:29:59;;;;;;;;;;;21.70;90.70;;;;;;5023509;28;19913;-62
2022/05/21 12:32:26;;;;;;;;;;;21.80;90.80;;;;;;5021631;28;19913;-62
2022/05/21 12:34:58;;;;;;;;;;;21.80;90.70;;;;;;5024248;28;19936;-61
2022/05/21 12:37:27;;;;;;;;;;;21.90;90.80;;;;;;5027129;28;19921;-62
2022/05/21 12:39:58;;;;;;;;;;;22.00;90.60;;;;;;5019968;28;19918;-63
2022/05/21 12:42:26;;;;;;;;;;;21.90;89.50;;;;;;5024746;28;19913;-62
2022/05/21 12:44:52;;;;;;;;;;;21.90;88.50;;;;;;5024484;28;19979;-62
2022/05/21 12:47:26;;;;;;;;;;;21.80;87.90;;;;;;5024041;28;19964;-61
2022/05/21 12:49:51;;;;;;;;;;;21.80;89.00;;;;;;5024425;28;19964;-62
2022/05/21 12:52:36;;;;;;;;;;;21.80;88.90;;;;;;5023789;28;19963;-62
2022/05/21 12:55:20;;;;;;;;;;;21.90;88.60;;;;;;5023950;28;20029;-62
2022/05/21 12:57:46;;;;;;;;;;;22.00;88.60;;;;;;5021698;28;20342;-61
2022/05/21 13:00:14;;;;;;;;;;;22.00;88.20;;;;;;5024597;28;19917;-62
2022/05/21 13:02:41;;;;;;;;;;;22.10;86.90;;;;;;5026224;28;20364;-63
2022/05/21 13:05:07;;;;;;;;;;;22.10;87.60;;;;;;5021039;28;19924;-62
2022/05/21 13:07:41;;;;;;;;;;;22.20;87.10;;;;;;5019562;28;19921;-64
2022/05/21 13:10:21;;;;;;;;;;;22.30;88.30;;;;;;5023346;28;19916;-61
2022/05/21 13:12:49;;;;;;;;;;;22.40;88.60;;;;;;5025192;28;19917;-61
2022/05/21 13:15:18;;;;;;;;;;;22.60;87.80;;;;;;5022179;28;19949;-63
2022/05/21 13:17:48;;;;;;;;;;;22.70;88.50;;;;;;5029520;28;20430;-63
2022/05/21 13:20:22;;;;;;;;;;;22.80;86.10;;;;;;5025432;28;19921;-62
2022/05/21 13:22:51;;;;;;;;;;;22.80;85.90;;;;;;5025078;28;20004;-61
2022/05/21 13:25:16;;;;;;;;;;;22.80;86.10;;;;;;5023586;28;19996;-63
2022/05/21 13:27:43;;;;;;;;;;;22.90;85.70;;;;;;5028807;28;19996;-63
2022/05/21 13:30:11;;;;;;;;;;;23.00;86.30;;;;;;5027333;28;19993;-62
2022/05/21 13:32:37;;;;;;;;;;;23.10;86.50;;;;;;5026459;28;20036;-63
2022/05/21 13:35:04;;;;;;;;;;;23.20;84.70;;;;;;5026208;28;20362;-63
2022/05/21 13:37:32;;;;;;;;;;;23.20;84.00;;;;;;5029219;28;19920;-63
2022/05/21 13:40:00;;;;;;;;;;;23.20;84.50;;;;;;5026966;28;20394;-64
2022/05/21 13:42:26;;;;;;;;;;;23.30;84.10;;;;;;5019999;28;20289;-63
2022/05/21 13:44:53;;;;;;;;;;;23.20;82.10;;;;;;5030691;28;20381;-64
2022/05/21 13:47:25;;;;;;;;;;;23.20;81.90;;;;;;5023693;28;19972;-62
2022/05/21 13:49:54;;;;;;;;;;;23.20;82.70;;;;;;5025401;28;19967;-61
2022/05/21 13:52:21;;;;;;;;;;;23.30;83.70;;;;;;5023815;28;19917;-63
2022/05/21 13:54:47;;;;;;;;;;;23.30;83.30;;;;;;5025215;28;20386;-60
2022/05/21 13:57:23;;;;;;;;;;;23.40;83.10;;;;;;5022901;28;19924;-62
2022/05/21 13:59:59;;;;;;;;;;;23.40;82.40;;;;;;5030946;28;19936;-63
2022/05/21 14:02:24;;;;;;;;;;;23.40;81.10;;;;;;5026495;28;20298;-62
2022/05/21 14:04:50;;;;;;;;;;;23.40;82.30;;;;;;5026805;28;20367;-62
2022/05/21 14:07:23;;;;;;;;;;;23.40;79.90;;;;;;5025351;28;19917;-61
2022/05/21 14:09:50;;;;;;;;;;;23.30;79.80;;;;;;5025889;28;19917;-62
2022/05/21 14:12:39;;;;;;;;;;;23.30;80.20;;;;;;5024731;28;20008;-61
2022/05/21 14:15:07;;;;;;;;;;;23.20;78.90;;;;;;5015424;28;19928;-62
2022/05/21 14:17:40;;;;;;;;;;;23.20;78.70;;;;;;5027710;28;19921;-61
2022/05/21 14:20:10;;;;;;;;;;;23.20;79.50;;;;;;5021098;28;19967;-64
2022/05/21 14:22:35;;;;;;;;;;;23.20;78.50;;;;;;5024222;28;20588;-62
2022/05/21 14:25:17;;;;;;;;;;;23.20;78.50;;;;;;5019374;28;19913;-63
2022/05/21 14:28:01;;;;;;;;;;;23.10;77.40;;;;;;5023623;28;20389;-61
2022/05/21 14:30:31;;;;;;;;;;;23.10;79.40;;;;;;5021898;28;19917;-62
2022/05/21 14:32:57;;;;;;;;;;;23.10;79.30;;;;;;5023828;28;19914;-62
2022/05/21 14:35:25;;;;;;;;;;;23.10;78.60;;;;;;5027748;28;19921;-61
2022/05/21 14:37:55;;;;;;;;;;;23.10;79.40;;;;;;5026292;28;19913;-62
2022/05/21 14:40:21;;;;;;;;;;;23.20;78.70;;;;;;5023195;28;20314;-62
2022/05/21 14:42:47;;;;;;;;;;;23.10;78.80;;;;;;5021823;28;19921;-63
2022/05/21 14:45:32;;;;;;;;;;;23.10;78.30;;;;;;5025407;28;20384;-63
2022/05/21 14:47:58;;;;;;;;;;;23.10;78.10;;;;;;5024933;28;19917;-63
2022/05/21 14:53:10;;;;;;;;;;;23.00;76.70;;;;;;5027725;28;19940;-61
2022/05/21 14:55:36;;;;;;;;;;;23.00;75.80;;;;;;5027727;28;19925;-62
2022/05/21 14:58:02;;;;;;;;;;;22.90;76.40;;;;;;5021817;28;20329;-61
2022/05/21 15:00:28;;;;;;;;;;;22.90;76.90;;;;;;5027686;28;19923;-63